createdAt,value
2023-05-15T00:01:46.373Z,11.70
2023-05-15T00:04:47.967Z,12.48
2023-05-15T00:07:50.028Z,10.73
2023-05-15T00:11:00.976Z,12.23
2023-05-15T00:14:03.323Z,11.88
2023-05-15T00:17:05.442Z,12.15
2023-05-15T00:20:09.371Z,12.60
2023-05-15T00:23:11.382Z,11.97
2023-05-15T00:26:15.072Z,14.05
2023-05-15T00:29:16.540Z,13.05
2023-05-15T00:32:17.833Z,11.60
2023-05-15T00:35:20.424Z,11.75
2023-05-15T00:38:22.365Z,12.57
2023-05-15T00:41:27.965Z,12.50
2023-05-15T00:44:31.054Z,12.48
2023-05-15T00:47:33.091Z,13.23
2023-05-15T00:50:35.445Z,13.40
2023-05-15T00:53:38.077Z,11.87
2023-05-15T00:56:41.642Z,13.45
2023-05-15T00:59:45.186Z,12.20
2023-05-15T01:02:46.601Z,12.68
2023-05-15T01:05:48.081Z,13.07
2023-05-15T01:08:51.396Z,12.67
2023-05-15T01:11:54.786Z,12.20
2023-05-15T01:14:56.480Z,12.77
2023-05-15T01:17:57.941Z,12.80
2023-05-15T01:21:20.954Z,12.82
2023-05-15T01:24:42.543Z,14.23
2023-05-15T01:27:47.853Z,13.43
2023-05-15T01:30:52.286Z,13.45
2023-05-15T01:33:58.840Z,12.70
2023-05-15T01:37:03.154Z,12.45
2023-05-15T01:40:08.632Z,14.33
2023-05-15T01:43:15.970Z,13.27
2023-05-15T01:46:21.698Z,13.63
2023-05-15T01:49:27.182Z,12.55
2023-05-15T01:52:30.658Z,13.60
2023-05-15T01:55:33.260Z,13.77
2023-05-15T01:58:37.461Z,14.25
2023-05-15T02:01:40.069Z,13.52
2023-05-15T02:04:42.861Z,13.30
2023-05-15T02:07:45.662Z,13.60
2023-05-15T02:10:47.939Z,14.43
2023-05-15T02:13:51.494Z,14.82
2023-05-15T02:16:53.000Z,13.85
2023-05-15T02:19:54.364Z,13.68
2023-05-15T02:22:55.760Z,14.27
2023-05-15T02:26:11.028Z,15.00
2023-05-15T02:29:19.382Z,13.93
2023-05-15T02:32:31.327Z,14.77
2023-05-15T02:35:37.677Z,15.02
2023-05-15T02:38:44.448Z,15.15
2023-05-15T02:41:47.051Z,14.10
2023-05-15T02:44:50.767Z,14.82
2023-05-15T02:47:53.009Z,14.10
2023-05-15T02:50:55.229Z,14.85
2023-05-15T02:53:59.500Z,13.52
2023-05-15T02:57:00.885Z,15.57
2023-05-15T03:00:04.693Z,15.45
2023-05-15T03:03:06.146Z,14.50
2023-05-15T03:06:07.614Z,13.93
2023-05-15T03:09:08.915Z,15.18
2023-05-15T03:12:10.683Z,15.57
2023-05-15T03:15:12.868Z,16.42
2023-05-15T03:18:15.745Z,14.55
2023-05-15T03:21:18.748Z,15.77
2023-05-15T03:24:20.607Z,15.60
2023-05-15T03:27:22.016Z,15.00
2023-05-15T03:30:24.043Z,16.50
2023-05-15T03:33:25.454Z,15.52
2023-05-15T03:36:26.907Z,15.10
2023-05-15T03:39:28.187Z,15.80
2023-05-15T03:42:29.710Z,14.87
2023-05-15T03:45:33.223Z,15.48
2023-05-15T03:48:34.535Z,15.10
2023-05-15T03:51:36.250Z,14.85
2023-05-15T03:54:37.682Z,15.05
2023-05-15T03:57:40.914Z,15.10
2023-05-15T04:00:43.459Z,14.48
2023-05-15T04:03:44.789Z,14.65
2023-05-15T04:06:46.262Z,14.85
2023-05-15T04:09:47.570Z,14.77
2023-05-15T04:12:48.906Z,14.93
2023-05-15T04:15:51.121Z,15.50
2023-05-15T04:18:52.643Z,15.63
2023-05-15T04:21:54.476Z,15.27
2023-05-15T04:24:55.787Z,15.10
2023-05-15T04:27:57.206Z,15.03
2023-05-15T04:30:59.297Z,14.23
2023-05-15T04:34:00.781Z,16.80
2023-05-15T04:37:02.412Z,16.92
2023-05-15T04:40:05.823Z,18.63
2023-05-15T04:43:07.685Z,19.27
2023-05-15T04:46:09.795Z,18.38
2023-05-15T04:49:11.390Z,15.85
2023-05-15T04:52:12.838Z,14.73
2023-05-15T04:55:14.142Z,16.75
2023-05-15T04:58:15.768Z,15.60
2023-05-15T05:01:18.050Z,13.63
2023-05-15T05:04:19.636Z,15.57
2023-05-15T05:07:21.078Z,12.75
2023-05-15T05:10:22.712Z,12.57
2023-05-15T05:13:24.207Z,13.53
2023-05-15T05:16:26.389Z,12.25
2023-05-15T05:19:27.916Z,12.57
2023-05-15T05:22:30.525Z,12.10
2023-05-15T05:25:31.881Z,13.13
2023-05-15T05:28:33.352Z,12.30
2023-05-15T05:31:35.353Z,10.98
2023-05-15T05:34:36.817Z,11.63
2023-05-15T05:37:40.231Z,10.80
2023-05-15T05:40:42.889Z,10.60
2023-05-15T05:43:44.209Z,9.93
2023-05-15T05:46:46.170Z,10.48
2023-05-15T05:49:47.500Z,10.90
2023-05-15T05:52:49.114Z,12.82
2023-05-15T05:55:50.589Z,11.20
2023-05-15T05:58:52.068Z,10.13
2023-05-15T06:01:54.072Z,11.63
2023-05-15T06:04:55.520Z,10.95
2023-05-15T06:07:57.143Z,10.57
2023-05-15T06:10:58.624Z,11.60
2023-05-15T06:14:00.179Z,11.82
2023-05-15T06:17:02.572Z,10.05
2023-05-15T06:20:06.253Z,9.48
2023-05-15T06:23:07.535Z,11.40
2023-05-15T06:26:09.074Z,11.13
2023-05-15T06:29:10.716Z,10.15
2023-05-15T06:32:12.705Z,10.02
2023-05-15T06:35:14.061Z,10.85
2023-05-15T06:38:15.341Z,13.48
2023-05-15T06:41:16.788Z,11.27
2023-05-15T06:44:18.216Z,11.40
2023-05-15T06:47:20.254Z,11.52
2023-05-15T06:50:21.908Z,10.85
2023-05-15T06:53:23.204Z,11.68
2023-05-15T06:56:24.955Z,10.87
2023-05-15T06:59:26.291Z,11.27
2023-05-15T07:02:28.299Z,9.68
2023-05-15T07:05:30.005Z,10.48
2023-05-15T07:08:31.318Z,10.10
2023-05-15T07:11:36.572Z,10.43
2023-05-15T07:14:37.885Z,12.20
2023-05-15T07:17:40.000Z,12.40
2023-05-15T07:20:41.491Z,14.10
2023-05-15T07:23:42.839Z,12.63
2023-05-15T07:26:57.576Z,11.83
2023-05-15T07:30:00.925Z,11.85
2023-05-15T07:33:03.030Z,9.50
2023-05-15T07:36:05.155Z,11.80
2023-05-15T07:39:06.523Z,13.82
2023-05-15T07:42:08.070Z,9.60
2023-05-15T07:45:10.198Z,14.20
2023-05-15T07:48:16.463Z,10.63
2023-05-15T07:51:18.045Z,9.02
2023-05-15T07:54:19.428Z,10.60
2023-05-15T07:57:20.892Z,11.40
2023-05-15T08:00:22.230Z,10.20
2023-05-15T08:03:24.599Z,9.88
2023-05-15T08:06:26.133Z,9.73
2023-05-15T08:09:27.674Z,10.50
2023-05-15T08:12:29.131Z,11.07
2023-05-15T08:15:30.506Z,11.48
2023-05-15T08:18:32.668Z,10.82
2023-05-15T08:21:34.166Z,9.23
2023-05-15T08:24:35.506Z,10.38
2023-05-15T08:27:36.809Z,9.80
2023-05-15T08:30:38.142Z,8.73
2023-05-15T08:33:40.297Z,11.18
2023-05-15T08:36:42.922Z,10.68
2023-05-15T08:39:44.262Z,10.60
2023-05-15T08:42:49.788Z,9.43
2023-05-15T08:45:53.608Z,8.57
2023-05-15T08:48:56.774Z,10.32
2023-05-15T08:51:58.617Z,8.90
2023-05-15T08:55:00.617Z,10.57
2023-05-15T08:58:02.462Z,9.50
2023-05-15T09:01:04.041Z,9.57
2023-05-15T09:04:06.103Z,10.85
2023-05-15T09:07:09.414Z,9.85
2023-05-15T09:10:12.725Z,9.57
2023-05-15T09:13:14.843Z,10.03
2023-05-15T09:16:16.311Z,10.60
2023-05-15T09:19:20.043Z,9.02
2023-05-15T09:22:23.578Z,8.95
2023-05-15T09:25:37.411Z,9.25
2023-05-15T09:28:39.315Z,8.60
2023-05-15T09:31:41.015Z,8.65
2023-05-15T09:34:45.173Z,9.00
2023-05-15T09:37:46.506Z,9.15
2023-05-15T09:40:47.850Z,9.13
2023-05-15T09:43:49.171Z,9.93
2023-05-15T09:46:50.888Z,9.30
2023-05-15T09:49:53.142Z,9.55
2023-05-15T09:52:58.260Z,8.20
2023-05-15T09:55:59.773Z,8.95
2023-05-15T09:59:01.426Z,8.47
2023-05-15T10:02:02.921Z,11.52
2023-05-15T10:05:05.504Z,9.50
2023-05-15T10:08:06.869Z,9.07
2023-05-15T10:11:08.762Z,10.27
2023-05-15T10:14:12.535Z,9.17
2023-05-15T10:17:14.224Z,12.38
2023-05-15T10:20:17.696Z,8.68
2023-05-15T10:23:21.877Z,10.18
2023-05-15T10:26:29.254Z,9.77
2023-05-15T10:29:33.919Z,8.13
2023-05-15T10:32:36.225Z,9.27
2023-05-15T10:35:39.790Z,9.20
2023-05-15T10:38:42.823Z,10.00
2023-05-15T10:41:45.664Z,9.95
2023-05-15T10:44:48.636Z,9.03
2023-05-15T10:47:51.533Z,10.30
2023-05-15T10:50:53.658Z,8.13
2023-05-15T10:53:56.071Z,9.70
2023-05-15T10:56:57.511Z,8.70
2023-05-15T10:59:58.866Z,8.23
2023-05-15T11:03:00.376Z,9.52
2023-05-15T11:06:09.557Z,9.35
2023-05-15T11:09:33.347Z,9.68
2023-05-15T11:12:56.318Z,9.30
2023-05-15T11:15:57.624Z,9.37
2023-05-15T11:18:59.159Z,10.10
2023-05-15T11:22:02.518Z,10.15
2023-05-15T11:25:08.121Z,7.25
2023-05-15T11:28:21.646Z,8.07
2023-05-15T11:31:29.905Z,8.97
2023-05-15T11:34:32.708Z,8.23
2023-05-15T11:37:38.030Z,11.38
2023-05-15T11:40:47.969Z,10.95
2023-05-15T11:43:50.245Z,9.23
2023-05-15T11:46:52.934Z,9.30
2023-05-15T11:49:54.518Z,8.75
2023-05-15T11:52:57.349Z,8.25
2023-05-15T11:55:59.199Z,9.65
2023-05-15T11:59:01.665Z,10.40
2023-05-15T12:02:05.851Z,9.87
2023-05-15T12:05:08.266Z,8.80
2023-05-15T12:08:11.050Z,12.73
2023-05-15T12:11:12.903Z,8.07
2023-05-15T12:14:14.566Z,8.20
2023-05-15T12:17:15.901Z,7.93
2023-05-15T12:20:18.480Z,7.85
2023-05-15T12:23:22.470Z,6.85
2023-05-15T12:26:25.585Z,9.65
2023-05-15T12:29:28.414Z,6.90
2023-05-15T12:32:31.806Z,7.03
2023-05-15T12:35:34.274Z,7.50
2023-05-15T12:38:36.747Z,7.05
2023-05-15T12:41:38.606Z,6.82
2023-05-15T12:44:39.971Z,7.63
2023-05-15T12:47:42.647Z,7.93
2023-05-15T12:50:45.087Z,6.22
2023-05-15T12:53:47.155Z,8.23
2023-05-15T12:56:49.158Z,5.30
2023-05-15T12:59:50.819Z,4.90
2023-05-15T13:02:54.377Z,6.13
2023-05-15T13:05:56.098Z,6.55
2023-05-15T13:08:58.523Z,5.40
2023-05-15T13:12:03.406Z,4.80
2023-05-15T13:15:06.488Z,5.95
2023-05-15T13:18:10.020Z,5.60
2023-05-15T13:21:11.470Z,5.95
2023-05-15T13:24:13.654Z,5.53
2023-05-15T13:27:15.383Z,6.05
2023-05-15T13:30:17.468Z,5.70
2023-05-15T13:33:19.165Z,6.80
2023-05-15T13:36:20.667Z,6.75
2023-05-15T13:39:22.651Z,5.18
2023-05-15T13:42:24.073Z,5.07
2023-05-15T13:45:25.483Z,11.43
2023-05-15T13:48:27.076Z,6.63
2023-05-15T13:51:28.582Z,5.60
2023-05-15T13:54:31.179Z,4.40
2023-05-15T13:57:32.659Z,4.50
2023-05-15T14:00:34.117Z,5.30
2023-05-15T14:03:35.693Z,4.43
2023-05-15T14:06:37.179Z,6.85
2023-05-15T14:09:39.536Z,5.95
2023-05-15T14:12:42.652Z,5.00
2023-05-15T14:15:43.980Z,5.32
2023-05-15T14:18:45.514Z,7.13
2023-05-15T14:21:46.961Z,5.15
2023-05-15T14:24:48.972Z,5.55
2023-05-15T14:27:50.640Z,6.25
2023-05-15T14:30:51.915Z,8.05
2023-05-15T14:33:53.528Z,6.33
2023-05-15T14:36:54.887Z,5.13
2023-05-15T14:39:57.009Z,4.90
2023-05-15T14:42:58.340Z,6.75
2023-05-15T14:45:59.854Z,5.93
2023-05-15T14:49:01.308Z,5.37
2023-05-15T14:52:02.752Z,5.63
2023-05-15T14:55:09.726Z,6.25
2023-05-15T14:58:11.357Z,6.70
2023-05-15T15:01:12.832Z,6.43
2023-05-15T15:04:14.308Z,5.17
2023-05-15T15:07:15.816Z,5.32
2023-05-15T15:10:18.218Z,6.75
2023-05-15T15:13:19.808Z,5.00
2023-05-15T15:16:21.328Z,5.32
2023-05-15T15:19:22.984Z,4.77
2023-05-15T15:22:24.284Z,5.32
2023-05-15T15:25:26.451Z,7.00
2023-05-15T15:28:28.502Z,5.43
2023-05-15T15:31:30.549Z,4.95
2023-05-15T15:34:31.874Z,4.80
2023-05-15T15:37:34.725Z,5.90
2023-05-15T15:40:36.674Z,6.07
2023-05-15T15:43:38.319Z,4.78
2023-05-15T15:46:39.674Z,6.00
2023-05-15T15:49:42.594Z,5.00
2023-05-15T15:52:44.176Z,5.82
2023-05-15T15:55:47.222Z,5.70
2023-05-15T15:58:48.742Z,6.47
2023-05-15T16:01:50.619Z,6.55
2023-05-15T16:04:53.925Z,6.43
2023-05-15T16:07:55.259Z,5.40
2023-05-15T16:10:57.404Z,4.25
2023-05-15T16:13:58.703Z,4.20
2023-05-15T16:17:00.716Z,4.93
2023-05-15T16:20:02.624Z,4.90
2023-05-15T16:23:03.977Z,4.38
2023-05-15T16:26:06.097Z,4.95
2023-05-15T16:29:07.447Z,5.28
2023-05-15T16:32:08.884Z,4.67
2023-05-15T16:35:10.426Z,6.75
2023-05-15T16:38:12.617Z,4.95
2023-05-15T16:41:14.621Z,5.07
2023-05-15T16:44:15.896Z,5.23
2023-05-15T16:47:17.332Z,5.03
2023-05-15T16:50:18.866Z,4.75
2023-05-15T16:53:20.341Z,5.28
2023-05-15T16:56:22.262Z,6.15
2023-05-15T16:59:23.580Z,5.20
2023-05-15T17:02:25.696Z,6.03
2023-05-15T17:05:27.380Z,5.38
2023-05-15T17:08:28.731Z,7.03
2023-05-15T17:11:30.811Z,6.32
2023-05-15T17:14:32.080Z,6.93
2023-05-15T17:17:33.882Z,6.77
2023-05-15T17:20:35.226Z,6.70
2023-05-15T17:23:36.563Z,6.00
2023-05-15T17:26:38.540Z,5.90
2023-05-15T17:29:40.125Z,5.97
2023-05-15T17:32:41.637Z,6.60
2023-05-15T17:35:43.069Z,6.45
2023-05-15T17:38:44.343Z,7.40
2023-05-15T17:41:46.352Z,6.35
2023-05-15T17:44:47.671Z,6.00
2023-05-15T17:47:49.194Z,11.43
2023-05-15T17:50:50.948Z,9.18
2023-05-15T17:53:52.425Z,7.53
2023-05-15T17:56:54.497Z,7.45
2023-05-15T17:59:55.828Z,6.23
2023-05-15T18:02:57.383Z,6.37
2023-05-15T18:05:58.854Z,5.63
2023-05-15T18:09:00.280Z,5.85
2023-05-15T18:12:02.702Z,5.57
2023-05-15T18:15:04.778Z,6.03
2023-05-15T18:18:06.309Z,6.83
2023-05-15T18:21:07.672Z,6.40
2023-05-15T18:24:09.179Z,6.47
2023-05-15T18:27:11.135Z,6.32
2023-05-15T18:30:13.762Z,7.33
2023-05-15T18:33:15.197Z,5.77
2023-05-15T18:36:16.503Z,5.70
2023-05-15T18:39:17.966Z,6.30
2023-05-15T18:42:19.875Z,6.35
2023-05-15T18:45:22.441Z,9.53
2023-05-15T18:48:23.814Z,6.73
2023-05-15T18:51:25.360Z,6.10
2023-05-15T18:54:26.842Z,6.80
2023-05-15T18:57:28.967Z,7.10
2023-05-15T19:03:36.670Z,6.80
2023-05-15T19:06:38.660Z,6.45
2023-05-15T19:09:40.132Z,7.35
2023-05-15T19:12:44.159Z,6.72
2023-05-15T19:15:50.328Z,6.90
2023-05-15T19:18:51.823Z,8.97
2023-05-15T19:21:53.438Z,7.90
2023-05-15T19:24:55.125Z,7.90
2023-05-15T19:27:57.225Z,6.50
2023-05-15T19:30:58.514Z,7.03
2023-05-15T19:34:00.349Z,7.30
2023-05-15T19:37:01.844Z,7.72
2023-05-15T19:40:05.230Z,6.90
2023-05-15T19:43:07.353Z,8.32
2023-05-15T19:46:08.679Z,7.07
2023-05-15T19:49:10.676Z,6.43
2023-05-15T19:52:11.945Z,6.47
2023-05-15T19:55:13.502Z,7.00
2023-05-15T19:58:15.481Z,7.32
2023-05-15T20:01:17.021Z,6.60
2023-05-15T20:04:20.149Z,7.63
2023-05-15T20:07:21.560Z,6.60
2023-05-15T20:10:23.224Z,7.18
2023-05-15T20:13:25.193Z,7.60
2023-05-15T20:16:26.784Z,7.17
2023-05-15T20:19:30.728Z,7.50
2023-05-15T20:22:32.158Z,6.97
2023-05-15T20:25:33.452Z,7.57
2023-05-15T20:28:35.512Z,6.93
2023-05-15T20:31:37.472Z,6.93
2023-05-15T20:34:40.657Z,6.90
2023-05-15T20:37:43.691Z,6.57
2023-05-15T20:40:45.048Z,7.10
2023-05-15T20:43:47.121Z,6.60
2023-05-15T20:46:48.394Z,7.50
2023-05-15T20:49:49.784Z,6.63
2023-05-15T20:52:51.058Z,7.35
2023-05-15T20:55:52.636Z,7.35
2023-05-15T20:58:54.571Z,7.47
2023-05-15T21:01:56.163Z,7.77
2023-05-15T21:04:57.740Z,7.43
2023-05-15T21:07:59.042Z,7.78
2023-05-15T21:11:00.649Z,7.90
2023-05-15T21:14:02.801Z,6.53
2023-05-15T21:17:04.571Z,8.07
2023-05-15T21:20:07.366Z,6.97
2023-05-15T21:23:08.687Z,7.90
2023-05-15T21:26:10.714Z,8.95
2023-05-15T21:29:12.906Z,7.68
2023-05-15T21:32:14.339Z,8.00
2023-05-15T21:35:16.214Z,8.57
2023-05-15T21:38:17.683Z,7.60
2023-05-15T21:41:19.122Z,7.18
2023-05-15T21:44:21.355Z,9.85
2023-05-15T21:47:22.868Z,8.33
2023-05-15T21:50:25.227Z,8.00
2023-05-15T21:53:26.995Z,8.70
2023-05-15T21:56:28.300Z,8.45
2023-05-15T21:59:30.408Z,8.88
2023-05-15T22:02:31.698Z,8.37
2023-05-15T22:05:33.567Z,8.20
2023-05-15T22:08:34.889Z,8.98
2023-05-15T22:11:36.325Z,8.65
2023-05-15T22:14:46.984Z,8.90
2023-05-15T22:17:59.699Z,9.02
2023-05-15T22:21:02.134Z,9.13
2023-05-15T22:24:03.843Z,11.35
2023-05-15T22:27:05.436Z,9.65
2023-05-15T22:30:08.668Z,8.90
2023-05-15T22:33:10.201Z,8.95
2023-05-15T22:36:11.480Z,10.82
2023-05-15T22:39:12.904Z,9.73
2023-05-15T22:42:14.201Z,8.80
2023-05-15T22:45:17.309Z,10.83
2023-05-15T22:48:20.249Z,9.32
2023-05-15T22:51:21.816Z,9.13
2023-05-15T22:54:23.648Z,9.70
2023-05-15T22:57:26.033Z,8.93
2023-05-15T23:00:28.332Z,9.73
2023-05-15T23:03:30.077Z,9.25
2023-05-15T23:06:31.585Z,10.40
2023-05-15T23:09:33.061Z,11.10
2023-05-15T23:12:34.324Z,10.90
2023-05-15T23:15:36.472Z,10.17
2023-05-15T23:18:37.986Z,10.20
2023-05-15T23:21:39.302Z,10.43
2023-05-15T23:24:40.707Z,9.65
2023-05-15T23:27:42.009Z,10.40
2023-05-15T23:30:44.148Z,8.83
2023-05-15T23:33:45.552Z,10.93
2023-05-15T23:36:46.994Z,11.45
2023-05-15T23:39:48.426Z,10.80
2023-05-15T23:42:49.787Z,9.63
2023-05-15T23:45:51.936Z,12.77
2023-05-15T23:48:53.233Z,11.07
2023-05-15T23:51:54.670Z,10.63
2023-05-15T23:54:55.945Z,10.40
2023-05-15T23:57:57.241Z,11.10
